PAIN

Details ICAO PAIN (MCL)
Name Mc Kinley National Park
Region USA (Alaska)
Timezone America/Anchorage (UTC-8.0)
Plans Departing 3
Arriving 1
Stats Elevation 1,720 ft / 524 m (AMSL)
Location 63.732598° -148.910638°
Runways 1
Magnetic Variation 16.805° E
Sunrise 2018-05-25 12:16:21 UTC / 2018-05-25 04:16:21 Local
Sunset 2018-05-26 07:31:46 UTC / 2018-05-25 23:31:46 Local
Advertisement - Login to hide

Runways

ID Width Length Bearing (true) Bearing (mag) Surface Threshold Offset Overrun Length
16 100 ft / 30 m 3,003 ft / 915 m 187.00° 170.20° Gravel 0 ft / 0 m 0 ft / 0 m
34 100 ft / 30 m 3,003 ft / 915 m 7.00° 350.20° Gravel 0 ft / 0 m 0 ft / 0 m

Map

Weather


0- 5 10 15 20 25 30 35+ Temperature / ° C

Clouds and Precipitation
Forecast for 2018-05-25 12:00 UTC. Updated 4 hours ago

Ground ~20,000 ft ~40,000 ft Winds

METAR

PAIN 251456Z AUTO 00000KT 10SM CLR 02/M02 A2975 RMK AO2 SLP096 T00171022 56002 FZRANO

TAF

Not found
Warning: Do not use this data for real-world aviation or navigation. No guarantee of current accuracy is given.